sensor_id;sensor_type;location;lat;lon;timestamp;P1;durP1;ratioP1;P2;durP2;ratioP2
5452;SDS011;2749;53.576;9.822;2022-09-01T00:01:52;2.40;;;1.30;;
5452;SDS011;2749;53.576;9.822;2022-09-01T00:04:20;1.00;;;0.90;;
5452;SDS011;2749;53.576;9.822;2022-09-01T00:06:47;2.30;;;1.73;;
5452;SDS011;2749;53.576;9.822;2022-09-01T00:09:15;3.00;;;1.30;;
5452;SDS011;2749;53.576;9.822;2022-09-01T00:11:43;2.60;;;1.40;;
5452;SDS011;2749;53.576;9.822;2022-09-01T00:14:09;2.93;;;1.43;;
5452;SDS011;2749;53.576;9.822;2022-09-01T00:16:36;1.20;;;1.10;;
5452;SDS011;2749;53.576;9.822;2022-09-01T00:19:02;1.30;;;1.20;;
5452;SDS011;2749;53.576;9.822;2022-09-01T00:21:32;1.67;;;1.30;;
5452;SDS011;2749;53.576;9.822;2022-09-01T00:23:59;1.83;;;1.33;;
5452;SDS011;2749;53.576;9.822;2022-09-01T00:26:25;1.37;;;1.00;;
5452;SDS011;2749;53.576;9.822;2022-09-01T00:28:51;2.13;;;1.30;;
5452;SDS011;2749;53.576;9.822;2022-09-01T00:31:18;1.60;;;1.50;;
5452;SDS011;2749;53.576;9.822;2022-09-01T00:33:44;1.70;;;1.57;;
5452;SDS011;2749;53.576;9.822;2022-09-01T00:36:10;1.87;;;1.70;;
5452;SDS011;2749;53.576;9.822;2022-09-01T00:38:38;2.30;;;1.57;;
5452;SDS011;2749;53.576;9.822;2022-09-01T00:41:04;2.10;;;1.90;;
5452;SDS011;2749;53.576;9.822;2022-09-01T00:46:00;1.73;;;1.57;;
5452;SDS011;2749;53.576;9.822;2022-09-01T00:48:26;1.40;;;1.30;;
5452;SDS011;2749;53.576;9.822;2022-09-01T00:50:52;1.40;;;1.20;;
5452;SDS011;2749;53.576;9.822;2022-09-01T00:53:18;1.30;;;1.20;;
5452;SDS011;2749;53.576;9.822;2022-09-01T00:55:44;2.00;;;1.43;;
5452;SDS011;2749;53.576;9.822;2022-09-01T00:58:10;1.93;;;1.70;;
5452;SDS011;2749;53.576;9.822;2022-09-01T01:00:37;1.60;;;1.40;;
5452;SDS011;2749;53.576;9.822;2022-09-01T01:03:08;2.70;;;1.40;;
5452;SDS011;2749;53.576;9.822;2022-09-01T01:05:36;1.40;;;1.30;;
5452;SDS011;2749;53.576;9.822;2022-09-01T01:08:04;1.43;;;1.20;;
5452;SDS011;2749;53.576;9.822;2022-09-01T01:10:32;3.40;;;1.77;;
5452;SDS011;2749;53.576;9.822;2022-09-01T01:13:00;1.47;;;1.17;;
5452;SDS011;2749;53.576;9.822;2022-09-01T01:15:26;2.10;;;1.43;;
5452;SDS011;2749;53.576;9.822;2022-09-01T01:17:52;1.27;;;1.17;;
5452;SDS011;2749;53.576;9.822;2022-09-01T01:20:18;2.17;;;1.50;;
5452;SDS011;2749;53.576;9.822;2022-09-01T01:25:50;1.50;;;1.30;;
5452;SDS011;2749;53.576;9.822;2022-09-01T01:28:22;1.43;;;1.33;;
5452;SDS011;2749;53.576;9.822;2022-09-01T01:30:58;2.03;;;1.90;;
5452;SDS011;2749;53.576;9.822;2022-09-01T01:33:30;1.73;;;1.60;;
5452;SDS011;2749;53.576;9.822;2022-09-01T01:35:56;2.13;;;1.77;;
5452;SDS011;2749;53.576;9.822;2022-09-01T01:38:23;3.83;;;1.63;;
5452;SDS011;2749;53.576;9.822;2022-09-01T01:40:51;1.83;;;1.63;;
5452;SDS011;2749;53.576;9.822;2022-09-01T01:43:17;1.70;;;1.60;;
5452;SDS011;2749;53.576;9.822;2022-09-01T01:45:47;1.80;;;1.70;;
5452;SDS011;2749;53.576;9.822;2022-09-01T01:48:16;2.00;;;1.63;;
5452;SDS011;2749;53.576;9.822;2022-09-01T01:50:47;2.73;;;2.00;;
5452;SDS011;2749;53.576;9.822;2022-09-01T01:53:14;3.17;;;1.90;;
5452;SDS011;2749;53.576;9.822;2022-09-01T01:55:44;1.83;;;1.70;;
5452;SDS011;2749;53.576;9.822;2022-09-01T01:58:10;1.70;;;1.60;;
5452;SDS011;2749;53.576;9.822;2022-09-01T02:00:36;2.80;;;1.87;;
5452;SDS011;2749;53.576;9.822;2022-09-01T02:03:03;2.20;;;1.53;;
5452;SDS011;2749;53.576;9.822;2022-09-01T02:05:32;2.87;;;1.67;;
5452;SDS011;2749;53.576;9.822;2022-09-01T02:08:00;4.10;;;2.07;;
5452;SDS011;2749;53.576;9.822;2022-09-01T02:10:29;1.90;;;1.80;;
5452;SDS011;2749;53.576;9.822;2022-09-01T02:12:57;3.33;;;2.10;;
5452;SDS011;2749;53.576;9.822;2022-09-01T02:15:32;2.30;;;1.57;;
5452;SDS011;2749;53.576;9.822;2022-09-01T02:18:06;1.60;;;1.50;;
5452;SDS011;2749;53.576;9.822;2022-09-01T02:20:32;2.40;;;1.83;;
5452;SDS011;2749;53.576;9.822;2022-09-01T02:22:58;3.07;;;1.73;;
5452;SDS011;2749;53.576;9.822;2022-09-01T02:25:33;2.20;;;2.10;;
5452;SDS011;2749;53.576;9.822;2022-09-01T02:27:59;2.80;;;1.87;;
5452;SDS011;2749;53.576;9.822;2022-09-01T02:30:28;1.87;;;1.77;;
5452;SDS011;2749;53.576;9.822;2022-09-01T02:32:56;1.53;;;1.43;;
5452;SDS011;2749;53.576;9.822;2022-09-01T02:35:23;1.80;;;1.70;;
5452;SDS011;2749;53.576;9.822;2022-09-01T02:37:55;2.07;;;1.47;;
5452;SDS011;2749;53.576;9.822;2022-09-01T02:40:25;2.37;;;1.60;;
5452;SDS011;2749;53.576;9.822;2022-09-01T02:42:54;2.67;;;1.93;;
5452;SDS011;2749;53.576;9.822;2022-09-01T02:45:20;4.73;;;2.20;;
5452;SDS011;2749;53.576;9.822;2022-09-01T02:47:48;2.30;;;2.10;;
5452;SDS011;2749;53.576;9.822;2022-09-01T02:50:15;2.40;;;1.70;;
5452;SDS011;2749;53.576;9.822;2022-09-01T02:52:44;2.73;;;2.00;;
5452;SDS011;2749;53.576;9.822;2022-09-01T02:55:12;2.80;;;1.70;;
5452;SDS011;2749;53.576;9.822;2022-09-01T02:57:38;3.03;;;1.87;;
5452;SDS011;2749;53.576;9.822;2022-09-01T03:00:06;5.20;;;2.13;;
5452;SDS011;2749;53.576;9.822;2022-09-01T03:02:44;2.53;;;2.20;;
5452;SDS011;2749;53.576;9.822;2022-09-01T03:05:10;3.10;;;2.77;;
5452;SDS011;2749;53.576;9.822;2022-09-01T03:07:36;2.40;;;2.20;;
5452;SDS011;2749;53.576;9.822;2022-09-01T03:10:02;2.90;;;2.33;;
5452;SDS011;2749;53.576;9.822;2022-09-01T03:12:33;2.40;;;2.20;;
5452;SDS011;2749;53.576;9.822;2022-09-01T03:14:59;2.23;;;1.80;;
5452;SDS011;2749;53.576;9.822;2022-09-01T03:17:25;4.07;;;2.20;;
5452;SDS011;2749;53.576;9.822;2022-09-01T03:19:51;2.43;;;2.30;;
5452;SDS011;2749;53.576;9.822;2022-09-01T03:22:18;2.10;;;2.00;;
5452;SDS011;2749;53.576;9.822;2022-09-01T03:24:46;2.57;;;2.37;;
5452;SDS011;2749;53.576;9.822;2022-09-01T03:27:12;2.40;;;2.20;;
5452;SDS011;2749;53.576;9.822;2022-09-01T03:29:37;2.70;;;2.43;;
5452;SDS011;2749;53.576;9.822;2022-09-01T03:32:03;2.20;;;2.00;;
5452;SDS011;2749;53.576;9.822;2022-09-01T03:34:29;6.37;;;2.20;;
5452;SDS011;2749;53.576;9.822;2022-09-01T03:36:58;3.33;;;2.23;;
5452;SDS011;2749;53.576;9.822;2022-09-01T03:39:25;3.07;;;2.20;;
5452;SDS011;2749;53.576;9.822;2022-09-01T03:41:51;1.83;;;1.70;;
5452;SDS011;2749;53.576;9.822;2022-09-01T03:44:17;3.97;;;2.43;;
5452;SDS011;2749;53.576;9.822;2022-09-01T03:46:43;3.47;;;2.07;;
5452;SDS011;2749;53.576;9.822;2022-09-01T03:49:10;2.00;;;1.90;;
5452;SDS011;2749;53.576;9.822;2022-09-01T03:51:39;2.60;;;2.10;;
5452;SDS011;2749;53.576;9.822;2022-09-01T03:54:06;3.33;;;2.20;;
5452;SDS011;2749;53.576;9.822;2022-09-01T03:56:32;2.07;;;1.93;;
5452;SDS011;2749;53.576;9.822;2022-09-01T03:58:58;2.13;;;1.90;;
5452;SDS011;2749;53.576;9.822;2022-09-01T04:01:25;2.77;;;2.50;;
5452;SDS011;2749;53.576;9.822;2022-09-01T04:03:51;2.90;;;2.40;;
5452;SDS011;2749;53.576;9.822;2022-09-01T04:06:17;2.60;;;2.40;;
5452;SDS011;2749;53.576;9.822;2022-09-01T04:08:45;5.43;;;2.60;;
5452;SDS011;2749;53.576;9.822;2022-09-01T04:11:12;2.90;;;2.70;;
5452;SDS011;2749;53.576;9.822;2022-09-01T04:13:40;3.10;;;2.47;;
5452;SDS011;2749;53.576;9.822;2022-09-01T04:16:14;3.83;;;2.17;;
5452;SDS011;2749;53.576;9.822;2022-09-01T04:19:01;4.10;;;2.30;;
5452;SDS011;2749;53.576;9.822;2022-09-01T04:21:39;2.50;;;2.30;;
5452;SDS011;2749;53.576;9.822;2022-09-01T04:24:06;2.87;;;2.50;;
5452;SDS011;2749;53.576;9.822;2022-09-01T04:26:34;4.73;;;3.10;;
5452;SDS011;2749;53.576;9.822;2022-09-01T04:29:02;5.53;;;2.70;;
5452;SDS011;2749;53.576;9.822;2022-09-01T04:31:27;3.13;;;2.83;;
5452;SDS011;2749;53.576;9.822;2022-09-01T04:33:54;4.30;;;3.37;;
5452;SDS011;2749;53.576;9.822;2022-09-01T04:36:22;3.10;;;2.87;;
5452;SDS011;2749;53.576;9.822;2022-09-01T04:38:53;3.17;;;2.87;;
5452;SDS011;2749;53.576;9.822;2022-09-01T04:41:20;2.50;;;2.30;;
5452;SDS011;2749;53.576;9.822;2022-09-01T04:43:47;3.23;;;2.60;;
5452;SDS011;2749;53.576;9.822;2022-09-01T04:46:16;3.10;;;2.80;;
5452;SDS011;2749;53.576;9.822;2022-09-01T04:48:42;2.93;;;2.50;;
5452;SDS011;2749;53.576;9.822;2022-09-01T04:51:09;4.77;;;3.10;;
5452;SDS011;2749;53.576;9.822;2022-09-01T04:53:36;4.43;;;2.77;;
5452;SDS011;2749;53.576;9.822;2022-09-01T04:56:06;3.07;;;2.60;;
5452;SDS011;2749;53.576;9.822;2022-09-01T04:58:33;2.80;;;2.40;;
5452;SDS011;2749;53.576;9.822;2022-09-01T05:01:00;3.40;;;2.50;;
5452;SDS011;2749;53.576;9.822;2022-09-01T05:03:31;3.00;;;2.43;;
5452;SDS011;2749;53.576;9.822;2022-09-01T05:05:57;4.57;;;2.47;;
5452;SDS011;2749;53.576;9.822;2022-09-01T05:08:27;2.97;;;2.77;;
5452;SDS011;2749;53.576;9.822;2022-09-01T05:10:54;5.83;;;2.90;;
5452;SDS011;2749;53.576;9.822;2022-09-01T05:13:20;3.63;;;2.93;;
5452;SDS011;2749;53.576;9.822;2022-09-01T05:16:01;2.73;;;2.53;;
5452;SDS011;2749;53.576;9.822;2022-09-01T05:18:27;3.30;;;2.93;;
5452;SDS011;2749;53.576;9.822;2022-09-01T05:20:53;3.67;;;3.37;;
5452;SDS011;2749;53.576;9.822;2022-09-01T05:23:21;2.93;;;2.60;;
5452;SDS011;2749;53.576;9.822;2022-09-01T05:25:48;4.23;;;3.33;;
5452;SDS011;2749;53.576;9.822;2022-09-01T05:28:15;3.17;;;2.83;;
5452;SDS011;2749;53.576;9.822;2022-09-01T05:30:42;2.90;;;2.60;;
5452;SDS011;2749;53.576;9.822;2022-09-01T05:33:09;3.47;;;3.17;;
5452;SDS011;2749;53.576;9.822;2022-09-01T05:35:37;3.73;;;3.43;;
5452;SDS011;2749;53.576;9.822;2022-09-01T05:38:04;4.43;;;3.40;;
5452;SDS011;2749;53.576;9.822;2022-09-01T05:40:34;5.83;;;4.20;;
5452;SDS011;2749;53.576;9.822;2022-09-01T05:43:04;5.03;;;3.47;;
5452;SDS011;2749;53.576;9.822;2022-09-01T05:45:31;4.40;;;3.80;;
5452;SDS011;2749;53.576;9.822;2022-09-01T05:47:59;3.40;;;3.00;;
5452;SDS011;2749;53.576;9.822;2022-09-01T05:50:27;7.20;;;3.10;;
5452;SDS011;2749;53.576;9.822;2022-09-01T05:52:52;4.67;;;4.00;;
5452;SDS011;2749;53.576;9.822;2022-09-01T05:55:19;5.80;;;3.20;;
5452;SDS011;2749;53.576;9.822;2022-09-01T05:57:46;7.77;;;3.63;;
5452;SDS011;2749;53.576;9.822;2022-09-01T06:00:13;4.23;;;3.93;;
5452;SDS011;2749;53.576;9.822;2022-09-01T06:02:41;5.03;;;3.40;;
5452;SDS011;2749;53.576;9.822;2022-09-01T06:05:08;4.90;;;3.20;;
5452;SDS011;2749;53.576;9.822;2022-09-01T06:07:34;4.77;;;3.93;;
5452;SDS011;2749;53.576;9.822;2022-09-01T06:10:02;4.83;;;3.27;;
5452;SDS011;2749;53.576;9.822;2022-09-01T06:12:28;4.30;;;2.70;;
5452;SDS011;2749;53.576;9.822;2022-09-01T06:14:54;8.03;;;3.30;;
5452;SDS011;2749;53.576;9.822;2022-09-01T06:17:22;4.80;;;3.37;;
5452;SDS011;2749;53.576;9.822;2022-09-01T06:19:54;3.80;;;3.33;;
5452;SDS011;2749;53.576;9.822;2022-09-01T06:22:20;6.80;;;3.43;;
5452;SDS011;2749;53.576;9.822;2022-09-01T06:24:47;4.07;;;3.17;;
5452;SDS011;2749;53.576;9.822;2022-09-01T06:27:15;6.40;;;3.20;;
5452;SDS011;2749;53.576;9.822;2022-09-01T06:29:42;6.70;;;3.47;;
5452;SDS011;2749;53.576;9.822;2022-09-01T06:32:09;5.87;;;3.17;;
5452;SDS011;2749;53.576;9.822;2022-09-01T06:34:40;5.57;;;3.30;;
5452;SDS011;2749;53.576;9.822;2022-09-01T06:37:07;3.90;;;3.50;;
5452;SDS011;2749;53.576;9.822;2022-09-01T06:39:33;2.93;;;2.63;;
5452;SDS011;2749;53.576;9.822;2022-09-01T06:41:59;7.83;;;2.53;;
5452;SDS011;2749;53.576;9.822;2022-09-01T06:44:26;3.53;;;2.33;;
5452;SDS011;2749;53.576;9.822;2022-09-01T06:46:54;4.40;;;2.90;;
5452;SDS011;2749;53.576;9.822;2022-09-01T06:49:20;2.70;;;2.13;;
5452;SDS011;2749;53.576;9.822;2022-09-01T06:51:56;2.13;;;1.70;;
5452;SDS011;2749;53.576;9.822;2022-09-01T06:54:22;2.70;;;1.70;;
5452;SDS011;2749;53.576;9.822;2022-09-01T06:56:49;2.33;;;1.30;;
5452;SDS011;2749;53.576;9.822;2022-09-01T06:59:15;2.80;;;1.60;;
5452;SDS011;2749;53.576;9.822;2022-09-01T07:01:41;3.30;;;1.53;;
5452;SDS011;2749;53.576;9.822;2022-09-01T07:04:07;3.00;;;1.80;;
5452;SDS011;2749;53.576;9.822;2022-09-01T07:06:35;2.43;;;1.50;;
5452;SDS011;2749;53.576;9.822;2022-09-01T07:09:04;1.60;;;1.50;;
5452;SDS011;2749;53.576;9.822;2022-09-01T07:11:30;3.60;;;1.47;;
5452;SDS011;2749;53.576;9.822;2022-09-01T07:13:58;3.50;;;1.53;;
5452;SDS011;2749;53.576;9.822;2022-09-01T07:16:26;3.37;;;1.70;;
5452;SDS011;2749;53.576;9.822;2022-09-01T07:18:54;1.30;;;1.20;;
5452;SDS011;2749;53.576;9.822;2022-09-01T07:21:21;4.97;;;2.50;;
5452;SDS011;2749;53.576;9.822;2022-09-01T07:23:47;2.07;;;1.33;;
5452;SDS011;2749;53.576;9.822;2022-09-01T07:26:13;1.77;;;1.13;;
5452;SDS011;2749;53.576;9.822;2022-09-01T07:28:46;2.20;;;1.17;;
5452;SDS011;2749;53.576;9.822;2022-09-01T07:31:18;1.50;;;1.03;;
5452;SDS011;2749;53.576;9.822;2022-09-01T07:33:44;1.67;;;1.10;;
5452;SDS011;2749;53.576;9.822;2022-09-01T07:36:13;2.40;;;0.97;;
5452;SDS011;2749;53.576;9.822;2022-09-01T07:38:39;2.00;;;0.93;;
5452;SDS011;2749;53.576;9.822;2022-09-01T07:41:04;2.20;;;1.30;;
5452;SDS011;2749;53.576;9.822;2022-09-01T07:43:30;3.23;;;1.17;;
5452;SDS011;2749;53.576;9.822;2022-09-01T07:45:58;2.03;;;1.40;;
5452;SDS011;2749;53.576;9.822;2022-09-01T07:48:24;2.77;;;1.00;;
5452;SDS011;2749;53.576;9.822;2022-09-01T07:50:52;1.07;;;0.93;;
5452;SDS011;2749;53.576;9.822;2022-09-01T07:53:20;5.20;;;1.63;;
5452;SDS011;2749;53.576;9.822;2022-09-01T07:55:48;2.30;;;1.03;;
5452;SDS011;2749;53.576;9.822;2022-09-01T07:58:16;1.47;;;1.07;;
5452;SDS011;2749;53.576;9.822;2022-09-01T08:00:42;2.13;;;1.03;;
5452;SDS011;2749;53.576;9.822;2022-09-01T08:03:10;1.30;;;1.00;;
5452;SDS011;2749;53.576;9.822;2022-09-01T08:05:36;1.43;;;1.00;;
5452;SDS011;2749;53.576;9.822;2022-09-01T08:08:02;1.30;;;0.90;;
5452;SDS011;2749;53.576;9.822;2022-09-01T08:10:28;5.93;;;2.80;;
5452;SDS011;2749;53.576;9.822;2022-09-01T08:12:55;1.93;;;1.10;;
5452;SDS011;2749;53.576;9.822;2022-09-01T08:15:21;3.13;;;0.80;;
5452;SDS011;2749;53.576;9.822;2022-09-01T08:17:47;1.00;;;0.90;;
5452;SDS011;2749;53.576;9.822;2022-09-01T08:20:13;1.53;;;0.70;;
5452;SDS011;2749;53.576;9.822;2022-09-01T08:22:39;1.37;;;1.00;;
5452;SDS011;2749;53.576;9.822;2022-09-01T08:25:06;2.30;;;1.27;;
5452;SDS011;2749;53.576;9.822;2022-09-01T08:27:33;1.03;;;0.80;;
5452;SDS011;2749;53.576;9.822;2022-09-01T08:30:00;1.03;;;0.80;;
5452;SDS011;2749;53.576;9.822;2022-09-01T08:32:26;1.87;;;0.93;;
5452;SDS011;2749;53.576;9.822;2022-09-01T08:34:52;1.47;;;1.10;;
5452;SDS011;2749;53.576;9.822;2022-09-01T08:37:18;0.90;;;0.80;;
5452;SDS011;2749;53.576;9.822;2022-09-01T08:39:44;1.23;;;0.93;;
5452;SDS011;2749;53.576;9.822;2022-09-01T08:47:10;1.30;;;1.20;;
5452;SDS011;2749;53.576;9.822;2022-09-01T08:49:37;1.77;;;1.10;;
5452;SDS011;2749;53.576;9.822;2022-09-01T08:52:06;2.20;;;1.37;;
5452;SDS011;2749;53.576;9.822;2022-09-01T08:54:38;1.83;;;0.90;;
5452;SDS011;2749;53.576;9.822;2022-09-01T08:57:07;1.10;;;0.97;;
5452;SDS011;2749;53.576;9.822;2022-09-01T08:59:34;0.90;;;0.70;;
5452;SDS011;2749;53.576;9.822;2022-09-01T09:04:37;4.93;;;1.20;;
5452;SDS011;2749;53.576;9.822;2022-09-01T09:07:09;0.97;;;0.77;;
5452;SDS011;2749;53.576;9.822;2022-09-01T09:09:42;0.90;;;0.70;;
5452;SDS011;2749;53.576;9.822;2022-09-01T09:12:12;1.87;;;0.80;;
5452;SDS011;2749;53.576;9.822;2022-09-01T09:14:51;1.00;;;0.70;;
5452;SDS011;2749;53.576;9.822;2022-09-01T09:17:18;2.10;;;1.00;;
5452;SDS011;2749;53.576;9.822;2022-09-01T09:19:44;1.80;;;0.93;;
5452;SDS011;2749;53.576;9.822;2022-09-01T09:22:12;0.93;;;0.80;;
5452;SDS011;2749;53.576;9.822;2022-09-01T09:24:52;0.93;;;0.60;;
5452;SDS011;2749;53.576;9.822;2022-09-01T09:27:23;0.90;;;0.80;;
5452;SDS011;2749;53.576;9.822;2022-09-01T09:29:50;1.03;;;0.77;;
5452;SDS011;2749;53.576;9.822;2022-09-01T09:32:17;3.00;;;1.00;;
5452;SDS011;2749;53.576;9.822;2022-09-01T09:34:44;1.37;;;0.90;;
5452;SDS011;2749;53.576;9.822;2022-09-01T09:39:42;2.97;;;1.10;;
5452;SDS011;2749;53.576;9.822;2022-09-01T09:42:10;1.40;;;0.90;;
5452;SDS011;2749;53.576;9.822;2022-09-01T09:44:42;3.97;;;0.70;;
5452;SDS011;2749;53.576;9.822;2022-09-01T09:47:09;1.93;;;1.27;;
5452;SDS011;2749;53.576;9.822;2022-09-01T09:49:35;1.00;;;0.90;;
5452;SDS011;2749;53.576;9.822;2022-09-01T09:54:28;5.13;;;1.63;;
5452;SDS011;2749;53.576;9.822;2022-09-01T10:04:49;1.03;;;0.70;;
5452;SDS011;2749;53.576;9.822;2022-09-01T10:09:47;1.53;;;1.27;;
5452;SDS011;2749;53.576;9.822;2022-09-01T10:12:13;0.93;;;0.83;;
5452;SDS011;2749;53.576;9.822;2022-09-01T10:14:40;1.70;;;0.97;;
5452;SDS011;2749;53.576;9.822;2022-09-01T10:17:08;1.20;;;1.10;;
5452;SDS011;2749;53.576;9.822;2022-09-01T10:19:37;1.00;;;0.90;;
5452;SDS011;2749;53.576;9.822;2022-09-01T10:22:05;12.10;;;1.00;;
5452;SDS011;2749;53.576;9.822;2022-09-01T10:24:34;1.00;;;0.70;;
5452;SDS011;2749;53.576;9.822;2022-09-01T10:27:02;0.87;;;0.80;;
5452;SDS011;2749;53.576;9.822;2022-09-01T10:29:33;1.03;;;0.70;;
5452;SDS011;2749;53.576;9.822;2022-09-01T10:32:01;0.93;;;0.83;;
5452;SDS011;2749;53.576;9.822;2022-09-01T10:34:32;1.93;;;1.10;;
5452;SDS011;2749;53.576;9.822;2022-09-01T10:37:00;1.83;;;0.90;;
5452;SDS011;2749;53.576;9.822;2022-09-01T10:39:26;1.53;;;0.80;;
5452;SDS011;2749;53.576;9.822;2022-09-01T10:41:53;0.87;;;0.87;;
5452;SDS011;2749;53.576;9.822;2022-09-01T10:44:24;0.80;;;0.60;;
5452;SDS011;2749;53.576;9.822;2022-09-01T10:46:54;1.23;;;0.80;;
5452;SDS011;2749;53.576;9.822;2022-09-01T10:49:55;1.00;;;0.87;;
5452;SDS011;2749;53.576;9.822;2022-09-01T10:52:06;3.73;;;0.80;;
5452;SDS011;2749;53.576;9.822;2022-09-01T10:57:06;1.10;;;1.00;;
5452;SDS011;2749;53.576;9.822;2022-09-01T10:59:34;0.70;;;0.70;;
5452;SDS011;2749;53.576;9.822;2022-09-01T11:02:04;0.70;;;0.70;;
5452;SDS011;2749;53.576;9.822;2022-09-01T11:07:04;1.43;;;0.90;;
5452;SDS011;2749;53.576;9.822;2022-09-01T11:12:09;0.80;;;0.80;;
5452;SDS011;2749;53.576;9.822;2022-09-01T11:14:49;1.30;;;0.93;;
5452;SDS011;2749;53.576;9.822;2022-09-01T11:17:18;1.43;;;0.60;;
5452;SDS011;2749;53.576;9.822;2022-09-01T11:19:45;1.33;;;1.20;;
5452;SDS011;2749;53.576;9.822;2022-09-01T11:27:04;3.70;;;1.10;;
5452;SDS011;2749;53.576;9.822;2022-09-01T11:32:15;1.63;;;0.90;;
5452;SDS011;2749;53.576;9.822;2022-09-01T11:34:41;1.63;;;0.90;;
5452;SDS011;2749;53.576;9.822;2022-09-01T11:37:13;1.63;;;0.83;;
5452;SDS011;2749;53.576;9.822;2022-09-01T11:39:41;1.37;;;0.90;;
5452;SDS011;2749;53.576;9.822;2022-09-01T11:42:09;2.93;;;1.43;;
5452;SDS011;2749;53.576;9.822;2022-09-01T11:44:43;1.20;;;1.10;;
5452;SDS011;2749;53.576;9.822;2022-09-01T11:47:12;1.10;;;1.00;;
5452;SDS011;2749;53.576;9.822;2022-09-01T11:49:57;1.17;;;0.80;;
5452;SDS011;2749;53.576;9.822;2022-09-01T11:52:25;1.73;;;0.87;;
5452;SDS011;2749;53.576;9.822;2022-09-01T11:54:51;0.90;;;0.77;;
5452;SDS011;2749;53.576;9.822;2022-09-01T11:57:28;0.80;;;0.80;;
5452;SDS011;2749;53.576;9.822;2022-09-01T11:59:55;1.50;;;0.93;;
5452;SDS011;2749;53.576;9.822;2022-09-01T12:02:26;0.90;;;0.70;;
5452;SDS011;2749;53.576;9.822;2022-09-01T12:04:53;1.83;;;1.00;;
5452;SDS011;2749;53.576;9.822;2022-09-01T12:08:03;1.60;;;0.90;;
5452;SDS011;2749;53.576;9.822;2022-09-01T12:12:58;3.10;;;1.10;;
5452;SDS011;2749;53.576;9.822;2022-09-01T12:15:25;0.80;;;0.77;;
5452;SDS011;2749;53.576;9.822;2022-09-01T12:17:51;1.13;;;0.90;;
5452;SDS011;2749;53.576;9.822;2022-09-01T12:22:44;0.90;;;0.70;;
5452;SDS011;2749;53.576;9.822;2022-09-01T12:25:17;1.90;;;1.20;;
5452;SDS011;2749;53.576;9.822;2022-09-01T12:27:44;2.03;;;0.90;;
5452;SDS011;2749;53.576;9.822;2022-09-01T12:30:10;1.00;;;0.87;;
5452;SDS011;2749;53.576;9.822;2022-09-01T12:32:37;2.73;;;0.90;;
5452;SDS011;2749;53.576;9.822;2022-09-01T12:35:03;1.97;;;0.90;;
5452;SDS011;2749;53.576;9.822;2022-09-01T12:37:35;1.40;;;1.03;;
5452;SDS011;2749;53.576;9.822;2022-09-01T12:40:02;3.80;;;0.80;;
5452;SDS011;2749;53.576;9.822;2022-09-01T12:42:29;4.17;;;1.07;;
5452;SDS011;2749;53.576;9.822;2022-09-01T12:44:57;3.13;;;0.90;;
5452;SDS011;2749;53.576;9.822;2022-09-01T12:50:02;1.10;;;0.80;;
5452;SDS011;2749;53.576;9.822;2022-09-01T12:52:29;2.90;;;0.97;;
5452;SDS011;2749;53.576;9.822;2022-09-01T12:57:30;1.87;;;0.70;;
5452;SDS011;2749;53.576;9.822;2022-09-01T13:00:05;0.73;;;0.60;;
5452;SDS011;2749;53.576;9.822;2022-09-01T13:02:34;1.30;;;0.87;;
5452;SDS011;2749;53.576;9.822;2022-09-01T13:07:45;1.00;;;0.90;;
5452;SDS011;2749;53.576;9.822;2022-09-01T13:10:11;2.63;;;1.13;;
5452;SDS011;2749;53.576;9.822;2022-09-01T13:12:40;2.10;;;0.80;;
5452;SDS011;2749;53.576;9.822;2022-09-01T13:15:06;1.00;;;0.90;;
5452;SDS011;2749;53.576;9.822;2022-09-01T13:17:32;1.40;;;1.30;;
5452;SDS011;2749;53.576;9.822;2022-09-01T13:19:58;0.97;;;0.87;;
5452;SDS011;2749;53.576;9.822;2022-09-01T13:22:24;2.40;;;0.90;;
5452;SDS011;2749;53.576;9.822;2022-09-01T13:24:50;1.17;;;0.90;;
5452;SDS011;2749;53.576;9.822;2022-09-01T13:27:16;1.47;;;1.00;;
5452;SDS011;2749;53.576;9.822;2022-09-01T13:29:42;0.93;;;0.83;;
5452;SDS011;2749;53.576;9.822;2022-09-01T13:32:10;2.10;;;0.93;;
5452;SDS011;2749;53.576;9.822;2022-09-01T13:34:35;0.90;;;0.90;;
5452;SDS011;2749;53.576;9.822;2022-09-01T13:37:01;1.30;;;0.83;;
5452;SDS011;2749;53.576;9.822;2022-09-01T13:39:27;0.90;;;0.60;;
5452;SDS011;2749;53.576;9.822;2022-09-01T13:41:53;1.67;;;1.00;;
5452;SDS011;2749;53.576;9.822;2022-09-01T13:44:19;1.00;;;0.80;;
5452;SDS011;2749;53.576;9.822;2022-09-01T13:46:45;0.83;;;0.83;;
5452;SDS011;2749;53.576;9.822;2022-09-01T13:49:11;0.80;;;0.73;;
5452;SDS011;2749;53.576;9.822;2022-09-01T13:51:38;2.40;;;1.30;;
5452;SDS011;2749;53.576;9.822;2022-09-01T13:54:05;3.30;;;1.00;;
5452;SDS011;2749;53.576;9.822;2022-09-01T13:56:30;1.20;;;0.90;;
5452;SDS011;2749;53.576;9.822;2022-09-01T13:58:56;1.37;;;0.90;;
5452;SDS011;2749;53.576;9.822;2022-09-01T14:01:22;0.90;;;0.80;;
5452;SDS011;2749;53.576;9.822;2022-09-01T14:03:48;1.10;;;1.00;;
5452;SDS011;2749;53.576;9.822;2022-09-01T14:06:15;3.50;;;1.47;;
5452;SDS011;2749;53.576;9.822;2022-09-01T14:08:40;1.17;;;0.87;;
5452;SDS011;2749;53.576;9.822;2022-09-01T14:11:07;1.00;;;0.80;;
5452;SDS011;2749;53.576;9.822;2022-09-01T14:13:33;1.20;;;1.10;;
5452;SDS011;2749;53.576;9.822;2022-09-01T14:15:59;2.30;;;1.00;;
5452;SDS011;2749;53.576;9.822;2022-09-01T14:18:26;1.87;;;0.90;;
5452;SDS011;2749;53.576;9.822;2022-09-01T14:20:57;1.00;;;0.80;;
5452;SDS011;2749;53.576;9.822;2022-09-01T14:23:25;2.60;;;1.10;;
5452;SDS011;2749;53.576;9.822;2022-09-01T14:25:51;3.10;;;1.30;;
5452;SDS011;2749;53.576;9.822;2022-09-01T14:28:19;2.73;;;1.07;;
5452;SDS011;2749;53.576;9.822;2022-09-01T14:30:45;3.83;;;1.00;;
5452;SDS011;2749;53.576;9.822;2022-09-01T14:33:11;2.10;;;1.00;;
5452;SDS011;2749;53.576;9.822;2022-09-01T14:35:38;0.90;;;0.80;;
5452;SDS011;2749;53.576;9.822;2022-09-01T14:38:05;1.10;;;0.93;;
5452;SDS011;2749;53.576;9.822;2022-09-01T14:40:32;1.80;;;1.20;;
5452;SDS011;2749;53.576;9.822;2022-09-01T14:43:00;1.50;;;0.80;;
5452;SDS011;2749;53.576;9.822;2022-09-01T14:45:26;0.80;;;0.80;;
5452;SDS011;2749;53.576;9.822;2022-09-01T14:47:54;1.70;;;0.80;;
5452;SDS011;2749;53.576;9.822;2022-09-01T14:50:20;1.70;;;1.00;;
5452;SDS011;2749;53.576;9.822;2022-09-01T14:52:47;1.07;;;0.97;;
5452;SDS011;2749;53.576;9.822;2022-09-01T14:55:13;0.93;;;0.80;;
5452;SDS011;2749;53.576;9.822;2022-09-01T14:57:39;1.97;;;1.00;;
5452;SDS011;2749;53.576;9.822;2022-09-01T15:00:06;1.50;;;0.80;;
5452;SDS011;2749;53.576;9.822;2022-09-01T15:02:36;1.37;;;0.80;;
5452;SDS011;2749;53.576;9.822;2022-09-01T15:05:03;2.37;;;0.83;;
5452;SDS011;2749;53.576;9.822;2022-09-01T15:07:29;1.40;;;1.10;;
5452;SDS011;2749;53.576;9.822;2022-09-01T15:09:55;1.87;;;0.87;;
5452;SDS011;2749;53.576;9.822;2022-09-01T15:12:22;1.20;;;0.90;;
5452;SDS011;2749;53.576;9.822;2022-09-01T15:14:48;1.43;;;1.20;;
5452;SDS011;2749;53.576;9.822;2022-09-01T15:17:15;1.87;;;0.90;;
5452;SDS011;2749;53.576;9.822;2022-09-01T15:19:41;3.20;;;1.00;;
5452;SDS011;2749;53.576;9.822;2022-09-01T15:22:07;1.20;;;1.07;;
5452;SDS011;2749;53.576;9.822;2022-09-01T15:24:34;1.10;;;0.90;;
5452;SDS011;2749;53.576;9.822;2022-09-01T15:27:01;1.90;;;0.80;;
5452;SDS011;2749;53.576;9.822;2022-09-01T15:29:27;0.80;;;0.80;;
5452;SDS011;2749;53.576;9.822;2022-09-01T15:31:57;4.20;;;0.90;;
5452;SDS011;2749;53.576;9.822;2022-09-01T15:34:23;1.17;;;0.70;;
5452;SDS011;2749;53.576;9.822;2022-09-01T15:36:49;1.43;;;0.93;;
5452;SDS011;2749;53.576;9.822;2022-09-01T15:39:15;1.07;;;0.97;;
5452;SDS011;2749;53.576;9.822;2022-09-01T15:41:42;2.40;;;0.97;;
5452;SDS011;2749;53.576;9.822;2022-09-01T15:44:08;1.10;;;1.00;;
5452;SDS011;2749;53.576;9.822;2022-09-01T15:46:35;1.67;;;1.57;;
5452;SDS011;2749;53.576;9.822;2022-09-01T15:49:04;2.70;;;1.20;;
5452;SDS011;2749;53.576;9.822;2022-09-01T15:51:32;1.20;;;0.90;;
5452;SDS011;2749;53.576;9.822;2022-09-01T15:54:01;1.10;;;0.90;;
5452;SDS011;2749;53.576;9.822;2022-09-01T15:56:27;1.93;;;1.10;;
5452;SDS011;2749;53.576;9.822;2022-09-01T15:58:55;1.20;;;0.93;;
5452;SDS011;2749;53.576;9.822;2022-09-01T16:01:22;1.30;;;1.20;;
5452;SDS011;2749;53.576;9.822;2022-09-01T16:03:48;0.90;;;0.77;;
5452;SDS011;2749;53.576;9.822;2022-09-01T16:06:14;1.23;;;0.80;;
5452;SDS011;2749;53.576;9.822;2022-09-01T16:08:40;0.90;;;0.70;;
5452;SDS011;2749;53.576;9.822;2022-09-01T16:11:07;0.83;;;0.83;;
5452;SDS011;2749;53.576;9.822;2022-09-01T16:13:34;1.07;;;0.80;;
5452;SDS011;2749;53.576;9.822;2022-09-01T16:16:08;1.57;;;1.17;;